createdAt,value
2022-08-11T00:01:36.784Z,21.22
2022-08-11T00:04:39.567Z,21.37
2022-08-11T00:07:45.389Z,21.10
2022-08-11T00:10:56.526Z,21.24
2022-08-11T00:13:59.426Z,21.24
2022-08-11T00:17:03.843Z,21.23
2022-08-11T00:20:14.685Z,21.22
2022-08-11T00:23:19.057Z,21.16
2022-08-11T00:26:23.188Z,21.10
2022-08-11T00:29:24.733Z,21.11
2022-08-11T00:32:27.584Z,21.04
2022-08-11T00:35:54.470Z,21.00
2022-08-11T00:38:55.614Z,21.08
2022-08-11T00:42:10.632Z,21.02
2022-08-11T00:45:27.624Z,20.96
2022-08-11T00:48:44.415Z,20.97
2022-08-11T00:52:08.065Z,20.99
2022-08-11T00:55:39.338Z,20.90
2022-08-11T00:59:00.776Z,20.79
2022-08-11T01:02:16.991Z,20.89
2022-08-11T01:05:48.138Z,20.88
2022-08-11T01:09:29.381Z,20.87
2022-08-11T01:12:45.592Z,20.25
2022-08-11T01:16:07.592Z,20.82
2022-08-11T01:19:29.265Z,20.65
2022-08-11T01:22:50.984Z,20.76
2022-08-11T01:26:22.625Z,20.78
2022-08-11T01:29:54.260Z,20.70
2022-08-11T01:33:35.849Z,20.75
2022-08-11T01:36:57.559Z,20.64
2022-08-11T01:40:36.168Z,20.68
2022-08-11T01:44:03.932Z,20.68
2022-08-11T01:47:39.504Z,20.65
2022-08-11T01:51:16.991Z,20.66
2022-08-11T01:54:31.695Z,20.62
2022-08-11T01:57:42.215Z,20.60
2022-08-11T02:00:58.207Z,20.57
2022-08-11T02:04:29.885Z,20.56
2022-08-11T02:07:38.444Z,20.38
2022-08-11T02:11:05.243Z,20.20
2022-08-11T02:14:28.401Z,20.60
2022-08-11T02:17:48.557Z,20.60
2022-08-11T02:20:57.155Z,20.63
2022-08-11T02:24:07.997Z,20.65
2022-08-11T02:27:20.490Z,20.63
2022-08-11T02:30:27.034Z,20.65
2022-08-11T02:33:33.271Z,20.65
2022-08-11T02:36:45.820Z,20.63
2022-08-11T02:40:15.621Z,20.61
2022-08-11T02:43:28.734Z,20.56
2022-08-11T02:46:48.213Z,20.50
2022-08-11T02:50:07.693Z,20.44
2022-08-11T02:53:25.155Z,20.36
2022-08-11T02:56:40.291Z,20.34
2022-08-11T03:00:00.313Z,20.33
2022-08-11T03:03:16.911Z,20.27
2022-08-11T03:06:31.061Z,20.22
2022-08-11T03:09:49.939Z,20.19
2022-08-11T03:13:11.232Z,20.15
2022-08-11T03:16:23.972Z,20.12
2022-08-11T03:19:37.023Z,19.88
2022-08-11T03:22:53.890Z,20.08
2022-08-11T03:26:25.828Z,19.99
2022-08-11T03:29:42.307Z,19.94
2022-08-11T03:33:15.087Z,19.89
2022-08-11T03:37:14.953Z,19.23
2022-08-11T03:40:13.139Z,19.75
2022-08-11T03:43:45.695Z,19.78
2022-08-11T03:47:22.633Z,19.81
2022-08-11T03:50:55.134Z,19.81
2022-08-11T03:54:11.759Z,19.77
2022-08-11T03:57:36.230Z,19.72
2022-08-11T04:04:45.422Z,19.76
2022-08-11T04:08:22.898Z,19.85
2022-08-11T04:11:44.216Z,19.85
2022-08-11T04:15:08.134Z,19.95
2022-08-11T04:18:28.629Z,20.03
2022-08-11T04:21:50.043Z,20.00
2022-08-11T04:25:11.521Z,20.05
2022-08-11T04:28:50.102Z,20.05
2022-08-11T04:32:12.336Z,19.94
2022-08-11T04:35:31.087Z,20.14
2022-08-11T04:38:48.854Z,20.30
2022-08-11T04:42:06.848Z,20.31
2022-08-11T04:45:35.492Z,20.24
2022-08-11T04:49:02.712Z,20.42
2022-08-11T04:52:22.770Z,20.52
2022-08-11T04:55:45.469Z,20.50
2022-08-11T04:59:16.751Z,20.50
2022-08-11T05:02:51.248Z,20.41
2022-08-11T05:06:15.026Z,20.68
2022-08-11T05:09:28.291Z,20.61
2022-08-11T05:12:41.311Z,20.53
2022-08-11T05:15:52.852Z,20.67
2022-08-11T05:18:55.484Z,20.72
2022-08-11T05:21:58.489Z,20.66
2022-08-11T05:25:10.335Z,20.83
2022-08-11T05:28:15.413Z,20.86
2022-08-11T05:31:21.136Z,21.08
2022-08-11T05:34:27.652Z,21.07
2022-08-11T05:37:43.068Z,21.16
2022-08-11T05:40:51.289Z,21.15
2022-08-11T05:44:20.425Z,21.55
2022-08-11T05:47:25.324Z,21.53
2022-08-11T05:54:33.537Z,21.97
2022-08-11T05:57:39.551Z,24.02
2022-08-11T06:00:53.642Z,23.66
2022-08-11T06:03:58.847Z,26.12
2022-08-11T06:11:05.824Z,27.44
2022-08-11T06:14:09.199Z,28.35
2022-08-11T06:17:11.136Z,28.20
2022-08-11T06:20:15.193Z,27.44
2022-08-11T06:23:21.415Z,26.37
2022-08-11T06:26:23.581Z,27.57
2022-08-11T06:29:38.260Z,28.35
2022-08-11T06:32:53.319Z,26.76
2022-08-11T06:36:10.972Z,26.88
2022-08-11T06:39:27.495Z,27.00
2022-08-11T06:42:57.478Z,26.90
2022-08-11T06:46:02.995Z,27.63
2022-08-11T06:49:06.820Z,28.42
2022-08-11T06:52:38.510Z,28.73
2022-08-11T06:55:58.252Z,28.41
2022-08-11T06:59:01.835Z,29.13
2022-08-11T07:02:32.059Z,29.51
2022-08-11T07:05:54.129Z,28.62
2022-08-11T07:09:15.663Z,28.74
2022-08-11T07:12:38.862Z,28.72
2022-08-11T07:16:10.717Z,28.23
2022-08-11T07:19:09.617Z,27.95
2022-08-11T07:22:13.026Z,27.94
2022-08-11T07:25:16.575Z,27.22
2022-08-11T07:28:23.041Z,26.81
2022-08-11T07:31:41.285Z,27.37
2022-08-11T07:34:50.547Z,27.45
2022-08-11T07:38:01.800Z,28.18
2022-08-11T07:41:21.499Z,27.98
2022-08-11T07:44:27.202Z,27.84
2022-08-11T07:47:31.579Z,28.30
2022-08-11T07:50:34.419Z,27.87
2022-08-11T07:53:57.831Z,27.15
2022-08-11T07:57:08.893Z,27.51
2022-08-11T08:00:11.755Z,27.54
2022-08-11T08:03:14.087Z,26.88
2022-08-11T08:06:35.909Z,27.04
2022-08-11T08:09:38.955Z,26.48
2022-08-11T08:12:41.858Z,26.39
2022-08-11T08:15:43.873Z,26.64
2022-08-11T08:19:11.524Z,26.41
2022-08-11T08:22:38.900Z,26.24
2022-08-11T08:25:40.930Z,27.26
2022-08-11T08:28:42.549Z,27.21
2022-08-11T08:31:45.994Z,27.54
2022-08-11T08:34:53.334Z,27.38
2022-08-11T08:37:55.484Z,27.95
2022-08-11T08:41:00.051Z,27.69
2022-08-11T08:44:37.279Z,27.81
2022-08-11T08:47:42.265Z,27.39
2022-08-11T08:50:52.010Z,26.78
2022-08-11T08:53:58.418Z,26.98
2022-08-11T08:57:05.659Z,27.35
2022-08-11T09:00:12.399Z,27.52
2022-08-11T09:03:41.028Z,27.70
2022-08-11T09:06:42.018Z,27.82
2022-08-11T09:09:47.692Z,26.73
2022-08-11T09:12:50.663Z,27.26
2022-08-11T09:15:56.292Z,27.18
2022-08-11T09:19:00.288Z,26.71
2022-08-11T09:22:01.990Z,26.25
2022-08-11T09:25:06.411Z,27.61
2022-08-11T09:28:12.966Z,27.57
2022-08-11T09:31:27.031Z,27.56
2022-08-11T09:34:29.378Z,27.89
2022-08-11T09:37:55.649Z,27.61
2022-08-11T09:41:27.336Z,28.09
2022-08-11T09:44:51.264Z,29.03
2022-08-11T09:47:54.045Z,28.48
2022-08-11T09:50:59.660Z,28.54
2022-08-11T09:54:03.963Z,28.61
2022-08-11T09:57:05.840Z,27.71
2022-08-11T10:00:13.508Z,27.72
2022-08-11T10:03:23.792Z,27.06
2022-08-11T10:06:33.320Z,27.83
2022-08-11T10:09:51.982Z,27.51
2022-08-11T10:13:01.412Z,28.24
2022-08-11T10:16:14.611Z,29.00
2022-08-11T10:19:20.519Z,28.47
2022-08-11T10:22:22.321Z,28.34
2022-08-11T10:25:24.145Z,28.27
2022-08-11T10:28:33.560Z,28.43
2022-08-11T10:31:57.660Z,27.57
2022-08-11T10:35:02.280Z,27.49
2022-08-11T10:38:15.845Z,27.85
2022-08-11T10:41:19.875Z,28.39
2022-08-11T10:44:22.960Z,27.94
2022-08-11T10:47:25.868Z,28.46
2022-08-11T10:50:29.417Z,28.27
2022-08-11T10:53:33.045Z,27.31
2022-08-11T10:56:41.863Z,27.67
2022-08-11T10:59:44.382Z,28.91
2022-08-11T11:03:22.005Z,28.65
2022-08-11T11:06:28.148Z,28.33
2022-08-11T11:09:44.755Z,28.74
2022-08-11T11:12:51.433Z,29.09
2022-08-11T11:15:53.270Z,28.44
2022-08-11T11:19:00.554Z,28.38
2022-08-11T11:22:03.318Z,28.36
2022-08-11T11:25:22.615Z,28.45
2022-08-11T11:28:46.920Z,28.10
2022-08-11T11:32:17.283Z,28.56
2022-08-11T11:35:29.551Z,29.10
2022-08-11T11:38:33.636Z,29.58
2022-08-11T11:41:35.745Z,29.92
2022-08-11T11:44:38.869Z,28.09
2022-08-11T11:47:41.914Z,28.34
2022-08-11T11:50:43.937Z,28.06
2022-08-11T11:53:46.825Z,27.03
2022-08-11T11:56:48.994Z,27.60
2022-08-11T11:59:55.375Z,27.20
2022-08-11T12:03:00.624Z,27.72
2022-08-11T12:10:09.328Z,27.63
2022-08-11T12:13:11.983Z,27.82
2022-08-11T12:16:34.932Z,27.83
2022-08-11T12:19:37.736Z,27.43
2022-08-11T12:22:49.354Z,28.34
2022-08-11T12:26:04.568Z,28.74
2022-08-11T12:29:14.275Z,29.20
2022-08-11T12:32:16.697Z,28.63
2022-08-11T12:35:18.546Z,29.23
2022-08-11T12:38:26.070Z,28.45
2022-08-11T12:41:33.034Z,28.74
2022-08-11T12:44:35.059Z,28.41
2022-08-11T12:47:37.449Z,28.14
2022-08-11T12:50:43.433Z,28.65
2022-08-11T12:53:53.984Z,28.43
2022-08-11T12:57:03.395Z,28.55
2022-08-11T13:00:06.907Z,28.15
2022-08-11T13:03:10.043Z,28.32
2022-08-11T13:06:12.257Z,27.66
2022-08-11T13:09:14.253Z,28.45
2022-08-11T13:12:21.296Z,28.64
2022-08-11T13:15:26.062Z,28.11
2022-08-11T13:18:30.163Z,28.32
2022-08-11T13:21:36.182Z,29.03
2022-08-11T13:24:39.621Z,29.05
2022-08-11T13:31:02.899Z,28.90
2022-08-11T13:34:06.187Z,28.54
2022-08-11T13:37:10.146Z,28.87
2022-08-11T13:40:14.033Z,29.04
2022-08-11T13:43:16.911Z,28.79
2022-08-11T13:46:19.277Z,28.26
2022-08-11T13:49:22.449Z,28.34
2022-08-11T13:52:24.696Z,28.57
2022-08-11T13:55:45.534Z,28.22
2022-08-11T14:05:31.295Z,28.14
2022-08-11T14:08:40.938Z,28.31
2022-08-11T14:12:20.146Z,28.15
2022-08-11T14:15:28.327Z,28.31
2022-08-11T14:19:01.818Z,28.56
2022-08-11T14:32:41.203Z,28.10
2022-08-11T14:35:57.043Z,28.27
2022-08-11T14:38:59.090Z,28.27
2022-08-11T14:42:10.923Z,28.19
2022-08-11T14:45:16.992Z,27.57
2022-08-11T14:48:18.869Z,28.06
2022-08-11T14:51:22.592Z,27.76
2022-08-11T14:54:28.089Z,27.87
2022-08-11T14:57:54.838Z,28.18
2022-08-11T15:01:00.626Z,28.07
2022-08-11T15:04:34.966Z,27.39
2022-08-11T15:07:28.509Z,28.10
2022-08-11T15:10:31.054Z,27.78
2022-08-11T15:13:32.929Z,27.61
2022-08-11T15:16:37.143Z,27.67
2022-08-11T15:19:41.579Z,27.42
2022-08-11T15:22:43.246Z,27.57
2022-08-11T15:25:51.147Z,27.54
2022-08-11T15:28:55.498Z,27.43
2022-08-11T15:32:24.587Z,26.95
2022-08-11T15:35:28.268Z,27.37
2022-08-11T15:38:47.267Z,27.35
2022-08-11T15:41:54.397Z,26.61
2022-08-11T15:45:06.780Z,27.14
2022-08-11T15:48:11.840Z,26.98
2022-08-11T15:51:19.825Z,26.92
2022-08-11T15:54:30.091Z,26.30
2022-08-11T15:57:39.759Z,26.70
2022-08-11T16:01:04.212Z,26.45
2022-08-11T16:04:15.672Z,26.40
2022-08-11T16:07:20.065Z,26.36
2022-08-11T16:10:25.864Z,26.17
2022-08-11T16:13:48.519Z,26.28
2022-08-11T16:16:53.359Z,26.20
2022-08-11T16:20:01.302Z,25.98
2022-08-11T16:23:21.642Z,26.09
2022-08-11T16:27:08.629Z,26.09
2022-08-11T16:29:48.530Z,26.08
2022-08-11T16:36:33.822Z,26.07
2022-08-11T16:39:35.602Z,25.84
2022-08-11T16:43:05.378Z,25.78
2022-08-11T16:46:04.346Z,25.76
2022-08-11T16:49:11.358Z,25.83
2022-08-11T16:52:13.632Z,25.76
2022-08-11T16:55:51.770Z,25.70
2022-08-11T17:02:51.128Z,25.59
2022-08-11T17:05:56.559Z,25.47
2022-08-11T17:08:58.265Z,24.95
2022-08-11T17:12:02.036Z,25.28
2022-08-11T17:15:09.326Z,25.44
2022-08-11T17:18:14.441Z,25.52
2022-08-11T17:21:24.771Z,25.48
2022-08-11T17:24:27.938Z,25.17
2022-08-11T17:27:32.111Z,24.81
2022-08-11T17:30:34.616Z,24.64
2022-08-11T17:33:37.540Z,24.43
2022-08-11T17:36:45.311Z,24.16
2022-08-11T17:39:49.253Z,23.94
2022-08-11T17:42:55.961Z,23.83
2022-08-11T17:45:58.515Z,23.53
2022-08-11T17:49:00.735Z,23.54
2022-08-11T17:52:04.473Z,23.30
2022-08-11T17:55:07.674Z,23.50
2022-08-11T17:58:09.494Z,23.33
2022-08-11T18:01:12.413Z,23.22
2022-08-11T18:04:15.497Z,22.15
2022-08-11T18:07:19.128Z,23.06
2022-08-11T18:10:21.260Z,22.73
2022-08-11T18:13:25.146Z,22.20
2022-08-11T18:16:26.748Z,22.76
2022-08-11T18:19:28.269Z,22.80
2022-08-11T18:22:37.380Z,22.75
2022-08-11T18:25:45.395Z,22.19
2022-08-11T18:28:50.432Z,22.62
2022-08-11T18:31:55.482Z,22.63
2022-08-11T18:34:59.286Z,22.61
2022-08-11T18:38:04.053Z,22.62
2022-08-11T18:41:08.617Z,22.25
2022-08-11T18:44:13.674Z,22.62
2022-08-11T18:47:18.632Z,22.45
2022-08-11T18:50:31.299Z,22.60
2022-08-11T18:53:46.313Z,22.60
2022-08-11T18:56:48.762Z,22.61
2022-08-11T18:59:52.050Z,22.59
2022-08-11T19:02:56.392Z,22.49
2022-08-11T19:06:35.809Z,22.62
2022-08-11T19:09:23.845Z,22.67
2022-08-11T19:12:28.533Z,22.64
2022-08-11T19:15:31.048Z,22.63
2022-08-11T19:18:34.857Z,22.61
2022-08-11T19:21:37.300Z,22.60
2022-08-11T19:24:41.076Z,22.52
2022-08-11T19:27:46.337Z,22.53
2022-08-11T19:30:48.779Z,22.46
2022-08-11T19:34:00.375Z,21.66
2022-08-11T19:37:12.723Z,22.48
2022-08-11T19:40:15.898Z,22.44
2022-08-11T19:43:26.048Z,22.38
2022-08-11T19:46:29.830Z,22.38
2022-08-11T19:49:32.913Z,22.31
2022-08-11T19:52:36.376Z,22.22
2022-08-11T19:55:38.947Z,22.21
2022-08-11T19:58:43.290Z,22.18
2022-08-11T20:02:01.362Z,22.12
2022-08-11T20:05:07.631Z,22.07
2022-08-11T20:08:13.665Z,22.06
2022-08-11T20:11:19.421Z,22.02
2022-08-11T20:14:23.910Z,22.04
2022-08-11T20:17:28.343Z,22.01
2022-08-11T20:20:31.370Z,21.96
2022-08-11T20:23:34.080Z,21.93
2022-08-11T20:26:36.267Z,21.80
2022-08-11T20:29:37.958Z,21.55
2022-08-11T20:33:10.182Z,21.72
2022-08-11T20:36:16.013Z,21.73
2022-08-11T20:39:19.097Z,20.98
2022-08-11T20:42:26.137Z,21.59
2022-08-11T20:45:32.303Z,21.60
2022-08-11T20:48:35.588Z,21.61
2022-08-11T20:51:38.908Z,21.54
2022-08-11T20:54:43.771Z,20.72
2022-08-11T20:58:01.406Z,21.36
2022-08-11T21:01:06.837Z,21.38
2022-08-11T21:04:21.175Z,21.38
2022-08-11T21:07:29.168Z,21.36
2022-08-11T21:10:33.623Z,21.17
2022-08-11T21:13:40.313Z,21.38
2022-08-11T21:16:43.806Z,21.38
2022-08-11T21:20:06.678Z,21.27
2022-08-11T21:23:19.815Z,21.29
2022-08-11T21:26:26.761Z,21.11
2022-08-11T21:29:30.493Z,21.16
2022-08-11T21:32:33.085Z,21.00
2022-08-11T21:35:35.650Z,21.11
2022-08-11T21:38:48.035Z,21.12
2022-08-11T21:41:50.697Z,21.15
2022-08-11T21:44:54.612Z,21.08
2022-08-11T21:48:01.285Z,21.02
2022-08-11T21:51:03.131Z,20.98
2022-08-11T21:54:06.128Z,20.91
2022-08-11T21:57:08.306Z,20.76
2022-08-11T22:00:10.215Z,20.77
2022-08-11T22:03:12.885Z,20.85
2022-08-11T22:06:16.947Z,20.85
2022-08-11T22:09:18.466Z,20.80
2022-08-11T22:12:34.566Z,20.79
2022-08-11T22:15:38.277Z,20.77
2022-08-11T22:18:40.354Z,20.68
2022-08-11T22:21:56.999Z,20.68
2022-08-11T22:25:15.293Z,20.62
2022-08-11T22:28:18.631Z,20.63
2022-08-11T22:31:20.763Z,20.59
2022-08-11T22:34:26.261Z,20.55
2022-08-11T22:37:30.165Z,20.59
2022-08-11T22:40:33.845Z,20.04
2022-08-11T22:43:35.306Z,20.62
2022-08-11T22:46:37.021Z,20.58
2022-08-11T22:49:56.111Z,20.49
2022-08-11T22:53:01.721Z,20.48
2022-08-11T22:56:03.560Z,20.55
2022-08-11T22:59:06.565Z,20.53
2022-08-11T23:02:08.583Z,20.50
2022-08-11T23:05:10.579Z,20.53
2022-08-11T23:08:12.400Z,20.49
2022-08-11T23:11:14.711Z,20.44
2022-08-11T23:14:16.818Z,20.44
2022-08-11T23:17:18.595Z,20.21
2022-08-11T23:20:40.726Z,20.24
2022-08-11T23:23:48.615Z,20.32
2022-08-11T23:26:50.535Z,20.31
2022-08-11T23:29:55.967Z,20.24
2022-08-11T23:32:59.834Z,20.21
2022-08-11T23:36:05.289Z,20.17
2022-08-11T23:39:07.130Z,20.10
2022-08-11T23:42:10.224Z,20.18
2022-08-11T23:45:12.876Z,20.09
2022-08-11T23:48:15.795Z,20.09
2022-08-11T23:51:18.476Z,20.12
2022-08-11T23:54:20.097Z,20.12
2022-08-11T23:57:22.151Z,20.11
